Five Points, California
Current Conditions -  °F | °C
As of 5:56 PM on Sunday 25 Jan 2015 (Local Time) from KNLC Reporting Station
Haze Haze  
Wind Chill: 43°   Ceiling: Unl
Heat Index: 45°   Visibility: 5mi
Dew Point: 40°   Wind: 5mph
Humidity: 82%   Direction: 40°NE
Pressure: 30.08"   Gusts: NA
Location:  36.42°N, 120.1°W
Report Text: KNLC 260156Z 04004KT 5SM HZ CLR 07/04 A3008 RMK AO2 SLP188 RH/79 T00720044 $
Loading
Personal Weather Stations






























Interactive Weather Map New forecast layout! Learn more

10-Day Weather Forecast

Advertisements
Track Severe Weather on mobile